Time;durP1;ratioP1;P1;durP2;ratioP2;P2;SDS_P1;SDS_P2;PMS_P1;PMS_P2;Temp;Humidity;BMP_temperature;BMP_pressure;BME280_temperature;BME280_humidity;BME280_pressure;Samples;Min_cycle;Max_cycle;Signal;HPM_P1;HPM_P2
2021/12/20 00:02:13;;;;;;;;;;;;;;;-144.99;100.00;52692.69;5085212;28;19991;-67
2021/12/20 00:04:40;;;;;;;;;;;;;;;-144.99;100.00;52717.16;5086019;28;19992;-67
2021/12/20 00:07:06;;;;;;;;;;;;;;;-144.99;100.00;52766.09;5083461;28;20445;-67
2021/12/20 00:09:32;;;;;;;;;;;;;;;-144.99;100.00;52717.16;5086360;28;19977;-67
2021/12/20 00:11:59;;;;;;;;;;;;;;;-144.99;100.00;52745.69;5083753;28;19993;-67
2021/12/20 00:14:26;;;;;;;;;;;;;;;-144.99;100.00;52725.31;5088153;28;19996;-69
2021/12/20 00:16:53;;;;;;;;;;;;;;;-144.99;100.00;52745.69;5087723;28;19976;-68
2021/12/20 00:19:19;;;;;;;;;;;;;;;-144.99;100.00;52762.00;5080152;28;19988;-68
2021/12/20 00:21:46;;;;;;;;;;;;;;;-144.99;100.00;52727.34;5090703;28;20004;-67
2021/12/20 00:24:12;;;;;;;;;;;;;;;-144.99;100.00;52762.00;5092545;28;19996;-67
2021/12/20 00:26:38;;;;;;;;;;;;;;;-144.99;100.00;52733.47;5093717;28;19979;-68
2021/12/20 00:29:05;;;;;;;;;;;;;;;-144.99;100.00;52778.31;5095272;28;19977;-68
2021/12/20 00:31:33;;;;;;;;;;;;;;;-144.99;100.00;52733.47;5095374;28;20000;-68
2021/12/20 00:33:59;;;;;;;;;;;;;;;-144.99;100.00;52737.53;5086604;28;19989;-67
2021/12/20 00:36:27;;;;;;;;;;;;;;;-144.99;100.00;52778.31;5087726;28;20245;-67
2021/12/20 00:41:37;;;;;;;;;;;;;;;-144.99;100.00;52737.53;5085772;28;20021;-67
2021/12/20 00:44:04;;;;;;;;;;;;;;;-144.99;100.00;52753.84;5080704;28;20099;-67
2021/12/20 00:46:30;;;;;;;;;;;;;;;-144.99;100.00;52741.63;5084683;28;20161;-69
2021/12/20 00:48:58;;;;;;;;;;;;;;;-144.99;100.00;52725.31;5082716;28;20087;-70
2021/12/20 00:51:24;;;;;;;;;;;;;;;-144.99;100.00;52753.84;5085528;28;19999;-73
2021/12/20 00:53:51;;;;;;;;;;;;;;;-144.99;100.00;52762.00;5084757;28;19992;-73
2021/12/20 00:56:17;;;;;;;;;;;;;;;-144.99;100.00;52762.00;5086666;28;20423;-72
2021/12/20 00:58:43;;;;;;;;;;;;;;;-144.99;100.00;52731.44;5080987;28;19988;-73
2021/12/20 01:01:10;;;;;;;;;;;;;;;-144.99;100.00;52766.09;5083879;28;19977;-73
2021/12/20 01:03:37;;;;;;;;;;;;;;;-144.99;100.00;52753.84;5082814;28;20450;-72
2021/12/20 01:06:05;;;;;;;;;;;;;;;-144.99;100.00;52745.69;5078620;22;20338;-61
2021/12/20 01:08:35;;;;;;;;;;;;;;;-144.99;100.00;52755.88;5038946;28;19992;-61
2021/12/20 01:11:01;;;;;;;;;;;;;;;-144.99;100.00;52757.94;5044099;28;20476;-60
2021/12/20 01:13:30;;;;;;;;;;;;;;;-144.99;100.00;52723.28;5043843;28;19988;-62
2021/12/20 01:16:00;;;;;;;;;;;;;;;-144.99;100.00;52749.78;5041505;28;19989;-61
2021/12/20 01:18:27;;;;;;;;;;;;;;;-144.99;100.00;52727.34;5041943;28;20478;-63
2021/12/20 01:20:53;;;;;;;;;;;;;;;-144.99;100.00;52729.38;5040835;28;19973;-63
2021/12/20 01:23:21;;;;;;;;;;;;;;;-144.99;100.00;52755.88;5041133;28;19977;-63
2021/12/20 01:25:48;;;;;;;;;;;;;;;-144.99;100.00;52713.09;5037926;28;19982;-61
2021/12/20 01:28:14;;;;;;;;;;;;;;;-144.99;100.00;52741.63;5040816;28;20301;-61
2021/12/20 01:30:41;;;;;;;;;;;;;;;-144.99;100.00;52741.63;5042968;28;19986;-63
2021/12/20 01:33:09;;;;;;;;;;;;;;;-144.99;100.00;52729.38;5044587;28;19977;-62
2021/12/20 01:35:37;;;;;;;;;;;;;;;-144.99;100.00;52721.22;5041797;28;20351;-62
2021/12/20 01:38:04;;;;;;;;;;;;;;;-144.99;100.00;52745.69;5041187;28;19982;-62
2021/12/20 01:40:34;;;;;;;;;;;;;;;-144.99;100.00;52749.78;5040626;28;19982;-62
2021/12/20 01:43:01;;;;;;;;;;;;;;;-144.99;100.00;52743.66;5039363;28;20035;-63
2021/12/20 01:45:28;;;;;;;;;;;;;;;-144.99;100.00;52737.53;5040246;28;20004;-63
2021/12/20 01:48:03;;;;;;;;;;;;;;;-144.99;100.00;52729.38;5036257;28;19977;-63
2021/12/20 01:50:41;;;;;;;;;;;;;;;-144.99;100.00;52778.31;5042271;28;19981;-63
2021/12/20 01:53:08;;;;;;;;;;;;;;;-144.99;100.00;52757.94;5042595;28;20116;-62
2021/12/20 01:55:35;;;;;;;;;;;;;;;-144.99;100.00;52753.84;5043380;28;19993;-63
2021/12/20 01:58:02;;;;;;;;;;;;;;;-144.99;100.00;52759.97;5043278;28;20050;-62
2021/12/20 02:00:29;;;;;;;;;;;;;;;-144.99;100.00;52733.47;5041695;28;19977;-63
2021/12/20 02:02:59;;;;;;;;;;;;;;;-144.99;100.00;52757.94;5040981;28;20009;-62
2021/12/20 02:05:45;;;;;;;;;;;;;;;-144.99;100.00;52721.22;4978105;28;1749011;-62
2021/12/20 02:08:18;;;;;;;;;;;;;;;-144.99;100.00;52733.47;4692290;28;9999923;-62
2021/12/20 02:10:47;;;;;;;;;;;;;;;-144.99;100.00;52747.72;5037107;28;19974;-62
2021/12/20 02:13:14;;;;;;;;;;;;;;;-144.99;100.00;52717.16;5034912;28;20001;-61
2021/12/20 02:15:40;;;;;;;;;;;;;;;-144.99;100.00;52737.53;5039926;28;19977;-62
2021/12/20 02:18:06;;;;;;;;;;;;;;;-144.99;100.00;52737.53;5042121;28;20083;-61
2021/12/20 02:20:35;;;;;;;;;;;;;;;-144.99;100.00;52762.00;5042290;28;19974;-61
2021/12/20 02:23:02;;;;;;;;;;;;;;;-144.99;100.00;52741.63;5043398;28;19978;-60
2021/12/20 02:25:29;;;;;;;;;;;;;;;-144.99;100.00;52725.31;5047277;28;19996;-61
2021/12/20 02:27:56;;;;;;;;;;;;;;;-144.99;100.00;52759.97;5043417;28;19974;-61
2021/12/20 02:30:41;;;;;;;;;;;;;;;-144.99;100.00;52737.53;5043793;28;19973;-61
2021/12/20 02:38:37;;;;;;;;;;;;;;;-144.99;100.00;52749.78;5045715;28;20027;-60
2021/12/20 02:41:06;;;;;;;;;;;;;;;-144.99;100.00;52780.34;5045977;28;19988;-60
2021/12/20 02:43:36;;;;;;;;;;;;;;;-144.99;100.00;52757.94;5046266;28;19993;-60
2021/12/20 02:46:05;;;;;;;;;;;;;;;-144.99;100.00;52762.00;5044046;28;19974;-60
2021/12/20 02:48:31;;;;;;;;;;;;;;;-144.99;100.00;52733.47;5041282;28;20481;-60
2021/12/20 02:50:59;;;;;;;;;;;;;;;-144.99;100.00;52753.84;5039874;28;20354;-60
2021/12/20 02:53:25;;;;;;;;;;;;;;;-144.99;100.00;52725.31;5046027;28;19997;-60
2021/12/20 02:55:52;;;;;;;;;;;;;;;-144.99;100.00;52749.78;5045439;28;19984;-60
2021/12/20 02:58:18;;;;;;;;;;;;;;;-144.99;100.00;52762.00;5040339;28;19981;-60
2021/12/20 03:00:45;;;;;;;;;;;;;;;-144.99;100.00;52766.09;5047699;28;20008;-61
2021/12/20 03:03:11;;;;;;;;;;;;;;;-144.99;100.00;52786.47;5046853;28;19981;-60
2021/12/20 03:05:38;;;;;;;;;;;;;;;-144.99;100.00;52737.53;5045396;28;19978;-60
2021/12/20 03:08:06;;;;;;;;;;;;;;;-144.99;100.00;52729.38;5042681;28;19973;-60
2021/12/20 03:10:34;;;;;;;;;;;;;;;-144.99;100.00;52741.63;5044591;28;19974;-60
2021/12/20 03:13:00;;;;;;;;;;;;;;;-144.99;100.00;52749.78;5041007;28;19993;-61
2021/12/20 03:15:27;;;;;;;;;;;;;;;-144.99;100.00;52762.00;5044467;28;20040;-62
2021/12/20 03:17:54;;;;;;;;;;;;;;;-144.99;100.00;52741.63;5040331;28;19981;-60
2021/12/20 03:20:21;;;;;;;;;;;;;;;-144.99;100.00;52747.72;5044577;28;20443;-61
2021/12/20 03:22:48;;;;;;;;;;;;;;;-144.99;100.00;52729.38;5045170;28;20024;-60
2021/12/20 03:25:17;;;;;;;;;;;;;;;-144.99;100.00;52725.31;5045810;28;20065;-61
2021/12/20 03:27:44;;;;;;;;;;;;;;;-144.99;100.00;52774.22;5041985;28;20031;-60
2021/12/20 03:30:14;;;;;;;;;;;;;;;-144.99;100.00;52766.09;5049222;28;19984;-61
2021/12/20 03:32:41;;;;;;;;;;;;;;;-144.99;100.00;52766.09;5048885;28;20480;-60
2021/12/20 03:35:08;;;;;;;;;;;;;;;-144.99;100.00;52766.09;5044135;28;20035;-60
2021/12/20 03:37:35;;;;;;;;;;;;;;;-144.99;100.00;52749.78;5046503;28;19981;-62
2021/12/20 03:40:02;;;;;;;;;;;;;;;-144.99;100.00;52749.78;5048170;28;20517;-65
2021/12/20 03:42:31;;;;;;;;;;;;;;;-144.99;100.00;52733.47;5050739;28;19996;-65
2021/12/20 03:44:57;;;;;;;;;;;;;;;-144.99;100.00;52782.38;5044226;28;19996;-65
2021/12/20 03:47:23;;;;;;;;;;;;;;;-144.99;100.00;52749.78;5047544;28;19977;-64
2021/12/20 03:49:50;;;;;;;;;;;;;;;-144.99;100.00;52737.53;5044146;28;19981;-64
2021/12/20 03:52:16;;;;;;;;;;;;;;;-144.99;100.00;52743.66;5046253;28;19999;-62
2021/12/20 03:54:42;;;;;;;;;;;;;;;-144.99;100.00;52810.94;5049367;28;20421;-65
2021/12/20 03:57:09;;;;;;;;;;;;;;;-144.99;100.00;52721.22;5045363;28;19977;-65
2021/12/20 03:59:37;;;;;;;;;;;;;;;-144.99;100.00;52729.38;5046861;28;19981;-65
2021/12/20 04:02:05;;;;;;;;;;;;;;;-144.99;100.00;52757.94;5048031;28;19989;-65
2021/12/20 04:04:31;;;;;;;;;;;;;;;-144.99;100.00;52751.81;5048345;28;20019;-67
2021/12/20 04:06:58;;;;;;;;;;;;;;;-144.99;100.00;52749.78;5046251;28;19981;-66
2021/12/20 04:09:24;;;;;;;;;;;;;;;-144.99;100.00;52766.09;5042689;28;20000;-65
2021/12/20 04:11:51;;;;;;;;;;;;;;;-144.99;100.00;52782.38;5045001;28;19973;-66
2021/12/20 04:14:17;;;;;;;;;;;;;;;-144.99;100.00;52766.09;5043789;28;19993;-66
2021/12/20 04:16:45;;;;;;;;;;;;;;;-144.99;100.00;52743.66;5047485;28;19977;-66
2021/12/20 04:19:11;;;;;;;;;;;;;;;-144.99;100.00;52766.09;5043771;28;20430;-66
2021/12/20 04:21:37;;;;;;;;;;;;;;;-144.99;100.00;52770.16;5046816;28;19973;-66
2021/12/20 04:24:04;;;;;;;;;;;;;;;-144.99;100.00;52749.78;5045901;28;20158;-66
2021/12/20 04:26:30;;;;;;;;;;;;;;;-144.99;100.00;52782.38;5047449;28;19984;-66
2021/12/20 04:28:57;;;;;;;;;;;;;;;-144.99;100.00;52745.69;5044547;28;19977;-66
2021/12/20 04:31:23;;;;;;;;;;;;;;;-144.99;100.00;52737.53;5045100;28;19981;-66
2021/12/20 04:33:51;;;;;;;;;;;;;;;-144.99;100.00;52706.97;5047995;28;20020;-64
2021/12/20 04:36:17;;;;;;;;;;;;;;;-144.99;100.00;52729.38;5040719;28;19988;-62
2021/12/20 04:38:44;;;;;;;;;;;;;;;-144.99;100.00;52757.94;5042333;28;20000;-63
2021/12/20 04:41:10;;;;;;;;;;;;;;;-144.99;100.00;52753.84;5047614;28;19981;-63
2021/12/20 04:43:37;;;;;;;;;;;;;;;-144.99;100.00;52778.31;5047997;28;19989;-63
2021/12/20 04:46:03;;;;;;;;;;;;;;;-144.99;100.00;52762.00;5045969;28;19981;-65
2021/12/20 04:48:30;;;;;;;;;;;;;;;-144.99;100.00;52729.38;5047360;28;19980;-65
2021/12/20 04:50:57;;;;;;;;;;;;;;;-144.99;100.00;52733.47;5048525;28;19984;-64
2021/12/20 04:53:24;;;;;;;;;;;;;;;-144.99;100.00;52770.16;5051961;28;20000;-64
2021/12/20 04:55:50;;;;;;;;;;;;;;;-144.99;100.00;52745.69;5050122;28;19974;-63
2021/12/20 04:58:17;;;;;;;;;;;;;;;-144.99;100.00;52733.47;5045250;28;19985;-62
2021/12/20 05:00:44;;;;;;;;;;;;;;;-144.99;100.00;52729.38;5041954;28;21486;-62
2021/12/20 05:03:10;;;;;;;;;;;;;;;-144.99;100.00;52766.09;5049369;28;19978;-62
2021/12/20 05:05:36;;;;;;;;;;;;;;;-144.99;100.00;52749.78;5049108;28;19978;-62
2021/12/20 05:08:05;;;;;;;;;;;;;;;-144.99;100.00;52735.50;5046423;28;19977;-61
2021/12/20 05:10:34;;;;;;;;;;;;;;;-144.99;100.00;52768.13;5046873;28;19978;-63
2021/12/20 05:13:02;;;;;;;;;;;;;;;-144.99;100.00;52766.09;5049345;28;20022;-62
2021/12/20 05:15:28;;;;;;;;;;;;;;;-144.99;100.00;52749.78;5052960;28;19993;-62
2021/12/20 05:17:55;;;;;;;;;;;;;;;-144.99;100.00;52706.97;5046831;28;19981;-61
2021/12/20 05:20:21;;;;;;;;;;;;;;;-144.99;100.00;52745.69;5044951;28;19982;-64
2021/12/20 05:22:48;;;;;;;;;;;;;;;-144.99;100.00;52798.69;5050075;28;19973;-62
2021/12/20 05:25:16;;;;;;;;;;;;;;;-144.99;100.00;52737.53;5050568;28;19997;-63
2021/12/20 05:27:42;;;;;;;;;;;;;;;-144.99;100.00;52737.53;5049787;28;19973;-63
2021/12/20 05:30:09;;;;;;;;;;;;;;;-144.99;100.00;52745.69;5045265;28;20430;-63
2021/12/20 05:32:36;;;;;;;;;;;;;;;-144.99;100.00;52721.22;5041368;28;20000;-63
2021/12/20 05:35:03;;;;;;;;;;;;;;;-144.99;100.00;52762.00;5050610;28;20416;-63
2021/12/20 05:37:29;;;;;;;;;;;;;;;-144.99;100.00;52700.84;5048434;28;20449;-63
2021/12/20 05:39:56;;;;;;;;;;;;;;;-144.99;100.00;52749.78;5042486;28;19974;-62
2021/12/20 05:42:24;;;;;;;;;;;;;;;-144.99;100.00;52729.38;5049028;28;19977;-62
2021/12/20 05:44:51;;;;;;;;;;;;;;;-144.99;100.00;52733.47;5049096;28;20016;-62
2021/12/20 05:47:18;;;;;;;;;;;;;;;-144.99;100.00;52741.63;5046849;28;20077;-62
2021/12/20 05:49:44;;;;;;;;;;;;;;;-144.99;100.00;52727.34;5046632;28;20345;-62
2021/12/20 05:52:11;;;;;;;;;;;;;;;-144.99;100.00;52737.53;5038867;28;20410;-63
2021/12/20 05:54:37;;;;;;;;;;;;;;;-144.99;100.00;52749.78;5047259;28;19996;-63
2021/12/20 05:57:04;;;;;;;;;;;;;;;-144.99;100.00;52745.69;5042171;28;20354;-63
2021/12/20 05:59:31;;;;;;;;;;;;;;;-144.99;100.00;52762.00;5041234;28;20076;-63
2021/12/20 06:01:58;;;;;;;;;;;;;;;-144.99;100.00;52729.38;4348635;28;10000106;-63
2021/12/20 06:04:24;;;;;;;;;;;;;;;-144.99;100.00;52731.44;5042492;28;19997;-62
2021/12/20 06:06:50;;;;;;;;;;;;;;;-144.99;100.00;52749.78;5044211;28;19977;-63
2021/12/20 06:09:17;;;;;;;;;;;;;;;-144.99;100.00;52725.31;5038915;28;19981;-62
2021/12/20 06:11:43;;;;;;;;;;;;;;;-144.99;100.00;52749.78;5038260;28;19988;-62
2021/12/20 06:14:09;;;;;;;;;;;;;;;-144.99;100.00;52696.78;5041161;28;20001;-61
2021/12/20 06:16:37;;;;;;;;;;;;;;;-144.99;100.00;52766.09;5044759;28;20449;-61
2021/12/20 06:19:04;;;;;;;;;;;;;;;-144.99;100.00;52774.22;5042336;28;19974;-62
2021/12/20 06:21:30;;;;;;;;;;;;;;;-144.99;100.00;52725.31;5043572;28;20473;-61
2021/12/20 06:23:57;;;;;;;;;;;;;;;-144.99;100.00;52766.09;5040298;28;20370;-62
2021/12/20 06:26:23;;;;;;;;;;;;;;;-144.99;100.00;52737.53;5044533;28;20441;-62
2021/12/20 06:28:50;;;;;;;;;;;;;;;-144.99;100.00;52745.69;5041704;28;19973;-62
2021/12/20 06:31:16;;;;;;;;;;;;;;;-144.99;100.00;52753.84;5037665;28;20397;-63
2021/12/20 06:33:44;;;;;;;;;;;;;;;-144.99;100.00;52717.16;5038324;28;20179;-61
2021/12/20 06:36:10;;;;;;;;;;;;;;;-144.99;100.00;52776.28;5023277;28;19977;-63
2021/12/20 06:38:43;;;;;;;;;;;;;;;-144.99;100.00;52776.28;5039562;28;19977;-63
2021/12/20 06:41:09;;;;;;;;;;;;;;;-144.99;100.00;52737.53;5042942;28;19988;-63
2021/12/20 06:43:36;;;;;;;;;;;;;;;-144.99;100.00;52770.16;5043989;28;19989;-62
2021/12/20 06:46:03;;;;;;;;;;;;;;;-144.99;100.00;52790.53;5040987;28;19980;-62
2021/12/20 06:48:29;;;;;;;;;;;;;;;-144.99;100.00;52786.47;5045964;28;20472;-62
2021/12/20 06:50:57;;;;;;;;;;;;;;;-144.99;100.00;52735.50;5046017;28;19984;-62
2021/12/20 06:53:24;;;;;;;;;;;;;;;-144.99;100.00;52731.44;5044673;28;20004;-63
2021/12/20 06:55:50;;;;;;;;;;;;;;;-144.99;100.00;52743.66;5042155;28;19977;-62
2021/12/20 06:58:16;;;;;;;;;;;;;;;-144.99;100.00;52721.22;5039512;28;19988;-63
2021/12/20 07:00:43;;;;;;;;;;;;;;;-144.99;100.00;52737.53;5044388;28;19992;-62
2021/12/20 07:03:09;;;;;;;;;;;;;;;-144.99;100.00;52762.00;5037609;28;19984;-63
2021/12/20 07:05:36;;;;;;;;;;;;;;;-144.99;100.00;52745.69;5059934;22;19992;-65
2021/12/20 07:08:03;;;;;;;;;;;;;;;-144.99;100.00;52753.84;5061093;28;19973;-64
2021/12/20 07:10:30;;;;;;;;;;;;;;;-144.99;100.00;52741.63;5059918;28;19984;-65
2021/12/20 07:12:56;;;;;;;;;;;;;;;-144.99;100.00;52749.78;5065352;28;19973;-64
2021/12/20 07:15:25;;;;;;;;;;;;;;;-144.99;100.00;52770.16;5071234;28;19993;-63
2021/12/20 07:17:51;;;;;;;;;;;;;;;-144.99;100.00;52757.94;5076310;28;19977;-63
2021/12/20 07:20:17;;;;;;;;;;;;;;;-144.99;100.00;52762.00;5081669;28;19975;-65
2021/12/20 07:22:44;;;;;;;;;;;;;;;-144.99;100.00;52755.88;5079002;28;19973;-63
2021/12/20 07:25:12;;;;;;;;;;;;;;;-144.99;100.00;52778.31;5059961;28;20364;-63
2021/12/20 07:27:39;;;;;;;;;;;;;;;-144.99;100.00;52770.16;5062505;28;20369;-63
2021/12/20 07:30:06;;;;;;;;;;;;;;;-144.99;100.00;52729.38;5058104;28;20457;-63
2021/12/20 07:32:32;;;;;;;;;;;;;;;-144.99;100.00;52766.09;5060199;28;19977;-64
2021/12/20 07:34:58;;;;;;;;;;;;;;;-144.99;100.00;52733.47;5054141;28;20027;-63
2021/12/20 07:37:26;;;;;;;;;;;;;;;-144.99;100.00;52733.47;5057780;28;19956;-64
2021/12/20 07:39:53;;;;;;;;;;;;;;;-144.99;100.00;52753.84;5056101;28;20020;-64
2021/12/20 07:42:21;;;;;;;;;;;;;;;-144.99;100.00;52739.56;5061038;28;19988;-64
2021/12/20 07:44:47;;;;;;;;;;;;;;;-144.99;100.00;52723.28;5055889;28;19989;-64
2021/12/20 07:47:14;;;;;;;;;;;;;;;-144.99;100.00;52749.78;5061696;28;19985;-64
2021/12/20 07:49:40;;;;;;;;;;;;;;;-144.99;100.00;52739.56;5063953;28;19973;-64
2021/12/20 07:52:07;;;;;;;;;;;;;;;-144.99;100.00;52802.78;5066533;28;19984;-64
2021/12/20 07:54:33;;;;;;;;;;;;;;;-144.99;100.00;52772.19;5060727;28;20019;-66
2021/12/20 07:56:59;;;;;;;;;;;;;;;-144.99;100.00;52753.84;5060968;28;19977;-63
2021/12/20 07:59:27;;;;;;;;;;;;;;;-144.99;100.00;52725.31;5060265;28;20433;-63
2021/12/20 08:01:53;;;;;;;;;;;;;;;-144.99;100.00;52725.31;5060919;28;19988;-64
2021/12/20 08:04:21;;;;;;;;;;;;;;;-144.99;100.00;52737.53;5066044;28;20008;-64
2021/12/20 08:06:48;;;;;;;;;;;;;;;-144.99;100.00;52737.53;5065802;28;20067;-66
2021/12/20 08:09:14;;;;;;;;;;;;;;;-144.99;100.00;52733.47;5057579;28;19981;-64
2021/12/20 08:11:41;;;;;;;;;;;;;;;-144.99;100.00;52786.47;5060817;28;19946;-64
2021/12/20 08:14:07;;;;;;;;;;;;;;;-144.99;100.00;52721.22;5065062;28;19997;-65
2021/12/20 08:16:35;;;;;;;;;;;;;;;-144.99;100.00;52709.00;5064448;28;20373;-64
2021/12/20 08:19:01;;;;;;;;;;;;;;;-144.99;99.88;52706.97;5061370;28;19931;-64
2021/12/20 08:21:28;;;;;;;;;;;;;;;-144.99;99.51;52731.44;5064153;28;20378;-65
2021/12/20 08:23:54;;;;;;;;;;;;;;;-144.99;98.88;52737.53;5063292;28;19996;-65
2021/12/20 08:26:20;;;;;;;;;;;;;;;-144.99;98.27;52762.00;5067985;28;19988;-65
2021/12/20 08:28:47;;;;;;;;;;;;;;;-144.99;97.69;52713.09;5063421;28;19987;-65
2021/12/20 08:31:14;;;;;;;;;;;;;;;-144.99;97.43;52706.97;5067787;28;19981;-65
2021/12/20 08:33:41;;;;;;;;;;;;;;;-144.99;97.05;52725.31;5065796;28;20003;-65
2021/12/20 08:36:11;;;;;;;;;;;;;;;-144.99;96.59;52739.56;5064750;28;20072;-65
2021/12/20 08:38:38;;;;;;;;;;;;;;;-144.99;95.67;52717.16;5066089;28;20023;-65
2021/12/20 08:41:04;;;;;;;;;;;;;;;-144.99;94.25;52692.69;5067749;28;20466;-65
2021/12/20 08:43:31;;;;;;;;;;;;;;;-144.99;93.23;52688.63;5067146;28;20448;-64
2021/12/20 08:45:59;;;;;;;;;;;;;;;-144.99;92.27;52723.28;5064592;28;19973;-64
2021/12/20 08:48:25;;;;;;;;;;;;;;;-144.99;90.81;52692.69;5061837;28;19980;-64
2021/12/20 08:50:53;;;;;;;;;;;;;;;-144.99;90.05;52682.50;5064168;28;19988;-64
2021/12/20 08:53:20;;;;;;;;;;;;;;;-144.99;88.32;52684.53;5067503;28;20348;-64
2021/12/20 08:55:46;;;;;;;;;;;;;;;-144.99;87.11;52668.22;5065590;28;20005;-64
2021/12/20 08:58:13;;;;;;;;;;;;;;;-144.99;85.65;52715.13;5069105;28;20003;-65
2021/12/20 09:00:39;;;;;;;;;;;;;;;-144.99;84.23;52684.53;5083118;28;19983;-65
2021/12/20 09:03:06;;;;;;;;;;;;;;;-144.99;81.86;52704.94;5082348;28;19996;-64
2021/12/20 09:05:33;;;;;;;;;;;;;;;-144.99;79.95;52688.63;5083863;28;20268;-65
2021/12/20 09:08:01;;;;;;;;;;;;;;;-144.99;78.09;52692.69;5079658;28;20045;-66
2021/12/20 09:10:28;;;;;;;;;;;;;;;-144.99;76.61;52690.66;5077595;28;19996;-64
2021/12/20 09:12:55;;;;;;;;;;;;;;;-144.99;75.12;52668.22;5077879;28;19973;-65
2021/12/20 09:15:21;;;;;;;;;;;;;;;-144.99;73.54;52668.22;5079571;28;20007;-64
2021/12/20 09:17:49;;;;;;;;;;;;;;;-144.99;72.21;52668.22;5078019;28;19981;-64
2021/12/20 09:20:16;;;;;;;;;;;;;;;-144.99;70.51;52688.63;5070162;28;19981;-64
2021/12/20 09:22:50;;;;;;;;;;;;;;;-144.99;68.27;52668.22;5082156;28;19977;-64
2021/12/20 09:25:18;;;;;;;;;;;;;;;-144.99;67.20;52668.22;5079898;28;20685;-65
2021/12/20 09:27:44;;;;;;;;;;;;;;;-144.99;66.32;52692.69;5068991;28;19968;-65
2021/12/20 09:30:11;;;;;;;;;;;;;;;-144.99;64.12;52660.09;5061397;28;19981;-64
2021/12/20 09:32:38;;;;;;;;;;;;;;;-144.99;62.88;52615.25;5068358;28;19980;-65
2021/12/20 09:35:04;;;;;;;;;;;;;;;-144.99;60.75;52615.25;5063315;28;20001;-75
2021/12/20 09:37:31;;;;;;;;;;;;;;;-144.99;60.63;52627.47;5065196;28;19977;-70
2021/12/20 09:39:59;;;;;;;;;;;;;;;-144.99;58.20;52643.78;5064051;28;20426;-71
2021/12/20 09:42:27;;;;;;;;;;;;;;;-144.99;56.40;52651.94;5061886;28;19977;-72
2021/12/20 09:44:54;;;;;;;;;;;;;;;-144.99;55.02;52615.25;5066563;28;19993;-71
2021/12/20 09:47:21;;;;;;;;;;;;;;;-144.99;54.01;52611.16;5061188;28;19988;-71
2021/12/20 09:49:47;;;;;;;;;;;;;;;-144.99;53.03;52635.63;5059728;28;19988;-71
2021/12/20 09:52:13;;;;;;;;;;;;;;;-144.99;51.98;52668.22;5064812;28;19981;-73
2021/12/20 09:54:40;;;;;;;;;;;;;;;-144.99;51.58;52623.38;5064962;28;19997;-71
2021/12/20 09:57:11;;;;;;;;;;;;;;;-144.99;50.15;52603.00;5060843;28;20166;-71
2021/12/20 09:59:41;;;;;;;;;;;;;;;-144.99;49.56;52609.13;5057447;28;20455;-71
2021/12/20 10:02:08;;;;;;;;;;;;;;;-144.99;48.28;52566.31;5064472;28;20508;-71
2021/12/20 10:04:35;;;;;;;;;;;;;;;-144.99;47.01;52607.09;4712097;28;10000437;-71
2021/12/20 10:07:02;;;;;;;;;;;;;;;-144.99;46.32;52560.19;5063065;28;19981;-71
2021/12/20 10:09:32;;;;;;;;;;;;;;;-144.99;44.93;52541.84;5058959;28;19999;-71
2021/12/20 10:12:11;;;;;;;;;;;;;;;-144.99;44.02;52550.00;4716651;28;10000211;-70
2021/12/20 10:14:52;;;;;;;;;;;;;;;-144.99;41.75;52505.16;5062233;28;20000;-71
2021/12/20 10:17:19;;;;;;;;;;;;;;;-144.99;40.98;52494.97;5058070;28;19985;-71
2021/12/20 10:19:46;;;;;;;;;;;;;;;-144.99;40.43;52509.25;5058357;28;19977;-71
2021/12/20 10:22:22;;;;;;;;;;;;;;;-144.99;39.72;52435.88;5059171;28;20415;-71
2021/12/20 10:24:49;;;;;;;;;;;;;;;-144.99;38.37;52472.56;5060147;28;19997;-71
2021/12/20 10:27:28;;;;;;;;;;;;;;;-144.99;38.06;52435.88;5057781;28;19981;-72
2021/12/20 10:29:55;;;;;;;;;;;;;;;-144.99;37.33;52423.63;5059343;28;20361;-70
2021/12/20 10:32:37;;;;;;;;;;;;;;;-144.99;36.71;52460.31;5060774;28;20055;-70
2021/12/20 10:35:04;;;;;;;;;;;;;;;-144.99;36.43;52435.88;5068033;28;20001;-70
2021/12/20 10:37:38;;;;;;;;;;;;;;;-144.99;35.98;52476.63;5066384;28;19982;-71
2021/12/20 10:40:05;;;;;;;;;;;;;;;-144.99;35.75;52411.41;5062022;28;21398;-70
2021/12/20 10:42:41;;;;;;;;;;;;;;;-144.99;35.74;52386.94;5063750;28;20472;-70
2021/12/20 10:45:09;;;;;;;;;;;;;;;-144.99;35.29;52386.94;5061289;28;20062;-70
2021/12/20 10:47:36;;;;;;;;;;;;;;;-144.99;35.47;52350.25;5060793;28;20231;-70
2021/12/20 10:50:17;;;;;;;;;;;;;;;-144.99;34.45;52378.78;5060865;28;20076;-69
2021/12/20 10:52:44;;;;;;;;;;;;;;;-144.99;33.77;52346.19;5066041;28;19973;-70
2021/12/20 10:55:11;;;;;;;;;;;;;;;-144.99;33.34;52325.81;5063693;28;19996;-72
2021/12/20 10:57:40;;;;;;;;;;;;;;;-144.99;33.33;52333.94;5061547;28;20366;-70
2021/12/20 11:00:15;;;;;;;;;;;;;;;-144.99;33.14;52342.09;5060377;28;20000;-71
2021/12/20 11:03:22;;;;;;;;;;;;;;;-144.99;32.63;52305.41;5059099;28;20003;-71
2021/12/20 11:06:12;;;;;;;;;;;;;;;-144.99;32.41;52333.94;5057793;28;20345;-70
2021/12/20 11:11:23;;;;;;;;;;;;;;;-144.99;31.25;52301.34;5055402;28;20162;-70
2021/12/20 11:13:49;;;;;;;;;;;;;;;-144.99;31.61;52313.56;5062603;28;19992;-70
2021/12/20 11:16:28;;;;;;;;;;;;;;;-144.99;31.27;52327.84;5054657;28;19980;-70
2021/12/20 11:19:24;;;;;;;;;;;;;;;-144.99;30.60;52317.66;5066451;28;20020;-70
2021/12/20 11:21:58;;;;;;;;;;;;;;;-144.99;30.53;52301.34;5004373;28;19989;-70
2021/12/20 11:24:29;;;;;;;;;;;;;;;-144.99;30.35;52305.41;5054446;28;20095;-70
2021/12/20 11:26:58;;;;;;;;;;;;;;;-144.99;30.49;52309.50;5058713;28;19973;-71
2021/12/20 11:29:25;;;;;;;;;;;;;;;-144.99;30.27;52301.34;5061820;28;19977;-70
2021/12/20 11:31:53;;;;;;;;;;;;;;;-144.99;29.96;52329.88;5066609;28;19991;-70
2021/12/20 11:34:20;;;;;;;;;;;;;;;-144.99;29.87;52289.13;5065257;28;20254;-70
2021/12/20 11:36:46;;;;;;;;;;;;;;;-144.99;30.12;52382.88;5064168;28;19980;-70
2021/12/20 11:39:13;;;;;;;;;;;;;;;-144.99;30.05;52276.88;5054960;28;19985;-70
2021/12/20 11:41:40;;;;;;;;;;;;;;;-144.99;30.10;52289.13;5067138;28;20008;-70
2021/12/20 11:44:08;;;;;;;;;;;;;;;-144.99;29.43;52289.13;5065592;28;20007;-70
2021/12/20 11:46:38;;;;;;;;;;;;;;;-144.99;29.78;52305.41;5057274;28;19991;-70
2021/12/20 11:49:09;;;;;;;;;;;;;;;-144.99;30.18;52350.25;5060240;28;20259;-70
2021/12/20 11:51:54;;;;;;;;;;;;;;;-144.99;29.98;52329.88;5069570;28;19977;-70
2021/12/20 11:54:32;;;;;;;;;;;;;;;-144.99;29.80;52342.09;5058000;28;20377;-70
2021/12/20 11:56:58;;;;;;;;;;;;;;;-144.99;30.00;52333.94;5069217;28;19995;-72
2021/12/20 11:59:46;;;;;;;;;;;;;;;-144.99;30.24;52346.19;5065365;28;19981;-70
2021/12/20 12:02:20;;;;;;;;;;;;;;;-144.99;30.20;52313.56;5058049;28;19984;-71
2021/12/20 12:05:04;;;;;;;;;;;;;;;-144.99;29.82;52283.00;5060415;28;19997;-70
2021/12/20 12:07:34;;;;;;;;;;;;;;;-144.99;29.02;52293.19;5069830;28;20063;-70
2021/12/20 12:10:02;;;;;;;;;;;;;;;-144.99;29.03;52293.19;5065048;28;20035;-70
2021/12/20 12:12:29;;;;;;;;;;;;;;;-144.99;29.08;52295.22;5063621;28;20615;-71
2021/12/20 12:15:06;;;;;;;;;;;;;;;-144.99;29.26;52305.41;5070409;28;20000;-71
2021/12/20 12:17:52;;;;;;;;;;;;;;;-144.99;29.59;52293.19;5071834;28;20441;-70
2021/12/20 12:20:36;;;;;;;;;;;;;;;-144.99;29.14;52293.19;5057084;28;19995;-70
2021/12/20 12:23:11;;;;;;;;;;;;;;;-144.99;29.04;52283.00;5069877;28;19973;-71
2021/12/20 12:25:40;;;;;;;;;;;;;;;-144.99;28.59;52272.81;5060265;28;19987;-70
2021/12/20 12:28:06;;;;;;;;;;;;;;;-144.99;28.26;52260.56;5069278;28;20495;-71
2021/12/20 12:30:34;;;;;;;;;;;;;;;-144.99;28.25;52289.13;5068966;28;19985;-70
2021/12/20 12:33:19;;;;;;;;;;;;;;;-144.99;28.24;52272.81;5070030;28;19985;-73
2021/12/20 12:35:49;;;;;;;;;;;;;;;-144.99;28.55;52264.66;5067387;28;20384;-70
2021/12/20 12:38:18;;;;;;;;;;;;;;;-144.99;28.47;52301.34;5064271;28;19988;-71